Naxos — SY2762 — position and weather

sailwx.info

Track history (hours):
 
Tides and Currents Weather Stations Pressure Air Temp Water Temp Dewpoint Dewpoint Depression Visibility Wind Speed Wind Dir Waves Ship Positions

Naxos

Last reported at 2017-Nov-24 14:44 UTC. Time now 2017-Nov-24 15:09 UTC.
Position N 37°04' E 024°47'.

Length 34 m; draft 2.3 m.

Type: Fishing. MMSI: 240010000.

Date/timePositionNaut miles runAvg speedWind from/ knotsBaromVisibWave heightAir tempDewpointWater temp
2017-Nov-24 14:44N 37°04' E 024°47'1 3.0
2017-Nov-24 14:30N 37°05' E 024°47'2 3.0
2017-Nov-24 14:00N 37°06' E 024°47'2 3.0
2017-Nov-24 13:30N 37°08' E 024°48'2 3.0
2017-Nov-24 13:00N 37°09' E 024°48'2 3.1
2017-Nov-24 12:30N 37°11' E 024°48'2 3.0
2017-Nov-24 12:01N 37°12' E 024°47'2 3.0
2017-Nov-24 11:31N 37°14' E 024°47'2 3.0
2017-Nov-24 11:00N 37°15' E 024°47'2 3.1
2017-Nov-24 10:30N 37°17' E 024°46'2 4.0
2017-Nov-24 10:00N 37°18' E 024°44'0 0.8
2017-Nov-24 09:30N 37°19' E 024°44'1 3.0
2017-Nov-24 09:00N 37°20' E 024°44'1 3.0
2017-Nov-24 08:30N 37°22' E 024°44'2 3.1
2017-Nov-24 08:00N 37°23' E 024°44'2 3.1
2017-Nov-24 07:31N 37°25' E 024°45'2 3.0
2017-Nov-24 07:00N 37°26' E 024°45'2 3.2
2017-Nov-24 06:30N 37°28' E 024°45'2 3.1
2017-Nov-24 06:00N 37°29' E 024°44'1 2.9
2017-Nov-24 05:30N 37°30' E 024°43'1 2.9
2017-Nov-24 05:00N 37°31' E 024°41'2 3.2
2017-Nov-24 04:30N 37°32' E 024°39'4 8.3
2017-Nov-24 04:00N 37°34' E 024°35'14 8.6
2017-Nov-24 02:21N 37°43' E 024°21'3 7.0
2017-Nov-24 01:59N 37°44' E 024°18'12 1.0
2017-Nov-23 14:50N 37°37' E 024°30'1 2.9
2017-Nov-23 14:30N 37°36' E 024°30'2 3.1
2017-Nov-23 14:00N 37°34' E 024°30'2 3.3
2017-Nov-23 13:31N 37°33' E 024°30'2 3.2
2017-Nov-23 13:00N 37°31' E 024°30'2 3.2
2017-Nov-23 12:30N 37°30' E 024°31'6 3.1
2017-Nov-23 10:26N 37°26' E 024°37'2 3.0
2017-Nov-23 09:46N 37°25' E 024°40'1 3.0
2017-Nov-23 09:28N 37°24' E 024°41'3 5.9
2017-Nov-23 09:00N 37°24' E 024°44'0 0.5
2017-Nov-23 08:30N 37°24' E 024°44'1 3.0
2017-Nov-23 08:00N 37°23' E 024°44'2 3.0
2017-Nov-23 07:30N 37°21' E 024°44'2 3.1
2017-Nov-23 07:00N 37°20' E 024°44'2 3.1
2017-Nov-23 06:30N 37°18' E 024°44'1 2.9
2017-Nov-23 06:00N 37°17' E 024°46'1 3.0
2017-Nov-23 05:31N 37°16' E 024°46'2 3.0
2017-Nov-23 05:00N 37°14' E 024°47'1 3.0
2017-Nov-23 04:30N 37°13' E 024°47'10 2.1
2017-Nov-22 23:45N 37°19' E 024°57'1 2.9
2017-Nov-22 23:30N 37°20' E 024°58'0 0.6
2017-Nov-22 23:00N 37°20' E 024°58'1 2.9
2017-Nov-22 22:30N 37°19' E 024°57'1 2.8
2017-Nov-22 22:00N 37°17' E 024°56'1 2.9
2017-Nov-22 21:31N 37°16' E 024°56'1 2.9
2017-Nov-22 21:00N 37°15' E 024°56'1 3.0
2017-Nov-22 20:30N 37°13' E 024°56'2 3.4
2017-Nov-22 20:00N 37°12' E 024°57'1 1.0
2017-Nov-22 19:30N 37°12' E 024°57'  
2017-Nov-20 00:30N 37°15' E 025°02'2 2.9
2017-Nov-20 00:00N 37°16' E 025°03'6 2.8
2017-Nov-19 21:51N 37°21' E 025°07'1 2.7
2017-Nov-19 21:30N 37°22' E 025°07'3 6.9
2017-Nov-19 21:00N 37°25' E 025°09'4 8.9
2017-Nov-19 20:31N 37°30' E 025°10'1 1.7
2017-Nov-19 20:00N 37°29' E 025°10'1 2.9
2017-Nov-19 19:30N 37°28' E 025°09'2 3.2
2017-Nov-19 19:00N 37°26' E 025°09'4 8.3
2017-Nov-19 18:30N 37°28' E 025°04'11 0.4
2017-Nov-18 17:10N 37°32' E 024°52'2 9.5
2017-Nov-18 17:00N 37°31' E 024°51'5 9.6
2017-Nov-18 16:30N 37°28' E 024°47'3 0.1
2017-Nov-17 08:59N 37°28' E 024°44'1 3.2
2017-Nov-17 08:31N 37°27' E 024°45'1 2.9
2017-Nov-17 08:00N 37°26' E 024°44'2 3.9
2017-Nov-17 07:25N 37°23' E 024°44'1 1.8
2017-Nov-17 07:00N 37°24' E 024°45'2 3.0
2017-Nov-17 06:30N 37°25' E 024°45'2 3.3
2017-Nov-17 06:01N 37°27' E 024°45'2 3.1
2017-Nov-17 05:30N 37°28' E 024°45'1 3.0
2017-Nov-17 05:00N 37°30' E 024°44'4 1.7
2017-Nov-17 02:52N 37°33' E 024°45'3 7.1
2017-Nov-17 02:25N 37°35' E 024°48'12 2.5
2017-Nov-16 21:28N 37°32' E 025°04'0 0.5
2017-Nov-16 21:00N 37°32' E 025°04'2 3.1
2017-Nov-16 20:30N 37°31' E 025°02'9 2.9
2017-Nov-16 17:30N 37°33' E 024°51'4 8.3
2017-Nov-16 17:00N 37°30' E 024°48'4 8.5
2017-Nov-16 16:30N 37°27' E 024°44'1 1.8
2017-Nov-16 16:00N 37°26' E 024°44'2 3.1
2017-Nov-16 15:30N 37°27' E 024°45'2 3.1
2017-Nov-16 15:01N 37°29' E 024°44'1 0.2
2017-Nov-16 11:11N 37°29' E 024°44'1 3.3
2017-Nov-16 11:00N 37°29' E 024°44'2 3.1
2017-Nov-16 10:30N 37°28' E 024°45'2 3.2
2017-Nov-16 10:01N 37°26' E 024°45'2 4.3
2017-Nov-16 09:30N 37°24' E 024°45'1 2.6
2017-Nov-16 09:01N 37°25' E 024°45'2 3.1
2017-Nov-16 08:30N 37°27' E 024°45'1 3.0
2017-Nov-16 08:00N 37°28' E 024°45'2 3.1
2017-Nov-16 07:30N 37°29' E 024°44'  
Track history (hours):
 
Tides and Currents Weather Stations Pressure Air Temp Water Temp Dewpoint Dewpoint Depression Visibility Wind Speed Wind Dir Waves Ship Positions

Naxos

Last reported at 2017-Nov-24 14:44 UTC. Time now 2017-Nov-24 15:09 UTC.
Position N 37°04' E 024°47'.

Length 34 m; draft 2.3 m.

Type: Fishing. MMSI: 240010000.

Date/timePositionNaut miles runAvg speedWind from/ knotsBaromVisibWave heightAir tempDewpointWater temp
2017-Nov-24 14:44N 37°04' E 024°47'1 3.0
2017-Nov-24 14:30N 37°05' E 024°47'2 3.0
2017-Nov-24 14:00N 37°06' E 024°47'2 3.0
2017-Nov-24 13:30N 37°08' E 024°48'2 3.0
2017-Nov-24 13:00N 37°09' E 024°48'2 3.1
2017-Nov-24 12:30N 37°11' E 024°48'2 3.0
2017-Nov-24 12:01N 37°12' E 024°47'2 3.0
2017-Nov-24 11:31N 37°14' E 024°47'2 3.0
2017-Nov-24 11:00N 37°15' E 024°47'2 3.1
2017-Nov-24 10:30N 37°17' E 024°46'2 4.0
2017-Nov-24 10:00N 37°18' E 024°44'0 0.8
2017-Nov-24 09:30N 37°19' E 024°44'1 3.0
2017-Nov-24 09:00N 37°20' E 024°44'1 3.0
2017-Nov-24 08:30N 37°22' E 024°44'2 3.1
2017-Nov-24 08:00N 37°23' E 024°44'2 3.1
2017-Nov-24 07:31N 37°25' E 024°45'2 3.0
2017-Nov-24 07:00N 37°26' E 024°45'2 3.2
2017-Nov-24 06:30N 37°28' E 024°45'2 3.1
2017-Nov-24 06:00N 37°29' E 024°44'1 2.9
2017-Nov-24 05:30N 37°30' E 024°43'1 2.9
2017-Nov-24 05:00N 37°31' E 024°41'2 3.2
2017-Nov-24 04:30N 37°32' E 024°39'4 8.3
2017-Nov-24 04:00N 37°34' E 024°35'14 8.6
2017-Nov-24 02:21N 37°43' E 024°21'3 7.0
2017-Nov-24 01:59N 37°44' E 024°18'12 1.0
2017-Nov-23 14:50N 37°37' E 024°30'1 2.9
2017-Nov-23 14:30N 37°36' E 024°30'2 3.1
2017-Nov-23 14:00N 37°34' E 024°30'2 3.3
2017-Nov-23 13:31N 37°33' E 024°30'2 3.2
2017-Nov-23 13:00N 37°31' E 024°30'2 3.2
2017-Nov-23 12:30N 37°30' E 024°31'6 3.1
2017-Nov-23 10:26N 37°26' E 024°37'2 3.0
2017-Nov-23 09:46N 37°25' E 024°40'1 3.0
2017-Nov-23 09:28N 37°24' E 024°41'3 5.9
2017-Nov-23 09:00N 37°24' E 024°44'0 0.5
2017-Nov-23 08:30N 37°24' E 024°44'1 3.0
2017-Nov-23 08:00N 37°23' E 024°44'2 3.0
2017-Nov-23 07:30N 37°21' E 024°44'2 3.1
2017-Nov-23 07:00N 37°20' E 024°44'2 3.1
2017-Nov-23 06:30N 37°18' E 024°44'1 2.9
2017-Nov-23 06:00N 37°17' E 024°46'1 3.0
2017-Nov-23 05:31N 37°16' E 024°46'2 3.0
2017-Nov-23 05:00N 37°14' E 024°47'1 3.0
2017-Nov-23 04:30N 37°13' E 024°47'10 2.1
2017-Nov-22 23:45N 37°19' E 024°57'1 2.9
2017-Nov-22 23:30N 37°20' E 024°58'0 0.6
2017-Nov-22 23:00N 37°20' E 024°58'1 2.9
2017-Nov-22 22:30N 37°19' E 024°57'1 2.8
2017-Nov-22 22:00N 37°17' E 024°56'1 2.9
2017-Nov-22 21:31N 37°16' E 024°56'1 2.9
2017-Nov-22 21:00N 37°15' E 024°56'1 3.0
2017-Nov-22 20:30N 37°13' E 024°56'2 3.4
2017-Nov-22 20:00N 37°12' E 024°57'1 1.0
2017-Nov-22 19:30N 37°12' E 024°57'  
2017-Nov-20 00:30N 37°15' E 025°02'2 2.9
2017-Nov-20 00:00N 37°16' E 025°03'6 2.8
2017-Nov-19 21:51N 37°21' E 025°07'1 2.7
2017-Nov-19 21:30N 37°22' E 025°07'3 6.9
2017-Nov-19 21:00N 37°25' E 025°09'4 8.9
2017-Nov-19 20:31N 37°30' E 025°10'1 1.7
2017-Nov-19 20:00N 37°29' E 025°10'1 2.9
2017-Nov-19 19:30N 37°28' E 025°09'2 3.2
2017-Nov-19 19:00N 37°26' E 025°09'4 8.3
2017-Nov-19 18:30N 37°28' E 025°04'11 0.4
2017-Nov-18 17:10N 37°32' E 024°52'2 9.5
2017-Nov-18 17:00N 37°31' E 024°51'5 9.6
2017-Nov-18 16:30N 37°28' E 024°47'3 0.1
2017-Nov-17 08:59N 37°28' E 024°44'1 3.2
2017-Nov-17 08:31N 37°27' E 024°45'1 2.9
2017-Nov-17 08:00N 37°26' E 024°44'2 3.9
2017-Nov-17 07:25N 37°23' E 024°44'1 1.8
2017-Nov-17 07:00N 37°24' E 024°45'2 3.0
2017-Nov-17 06:30N 37°25' E 024°45'2 3.3
2017-Nov-17 06:01N 37°27' E 024°45'2 3.1
2017-Nov-17 05:30N 37°28' E 024°45'1 3.0
2017-Nov-17 05:00N 37°30' E 024°44'4 1.7
2017-Nov-17 02:52N 37°33' E 024°45'3 7.1
2017-Nov-17 02:25N 37°35' E 024°48'12 2.5
2017-Nov-16 21:28N 37°32' E 025°04'0 0.5
2017-Nov-16 21:00N 37°32' E 025°04'2 3.1
2017-Nov-16 20:30N 37°31' E 025°02'9 2.9
2017-Nov-16 17:30N 37°33' E 024°51'4 8.3
2017-Nov-16 17:00N 37°30' E 024°48'4 8.5
2017-Nov-16 16:30N 37°27' E 024°44'1 1.8
2017-Nov-16 16:00N 37°26' E 024°44'2 3.1
2017-Nov-16 15:30N 37°27' E 024°45'2 3.1
2017-Nov-16 15:01N 37°29' E 024°44'1 0.2
2017-Nov-16 11:11N 37°29' E 024°44'1 3.3
2017-Nov-16 11:00N 37°29' E 024°44'2 3.1
2017-Nov-16 10:30N 37°28' E 024°45'2 3.2
2017-Nov-16 10:01N 37°26' E 024°45'2 4.3
2017-Nov-16 09:30N 37°24' E 024°45'1 2.6
2017-Nov-16 09:01N 37°25' E 024°45'2 3.1
2017-Nov-16 08:30N 37°27' E 024°45'1 3.0
2017-Nov-16 08:00N 37°28' E 024°45'2 3.1
2017-Nov-16 07:30N 37°29' E 024°44'  

Dump ship's entire track history